sensor_id;sensor_type;location;lat;lon;timestamp;P1;durP1;ratioP1;P2;durP2;ratioP2
73023;SDS011;61199;47.526;8.538;2022-11-06T00:00:25;15.63;;;8.27;;
73023;SDS011;61199;47.526;8.538;2022-11-06T00:02:52;30.13;;;8.63;;
73023;SDS011;61199;47.526;8.538;2022-11-06T00:05:18;13.80;;;7.90;;
73023;SDS011;61199;47.526;8.538;2022-11-06T00:08:03;13.33;;;8.50;;
73023;SDS011;61199;47.526;8.538;2022-11-06T00:10:29;14.57;;;8.57;;
73023;SDS011;61199;47.526;8.538;2022-11-06T00:12:58;13.47;;;8.03;;
73023;SDS011;61199;47.526;8.538;2022-11-06T00:15:24;26.93;;;8.40;;
73023;SDS011;61199;47.526;8.538;2022-11-06T00:17:51;29.67;;;8.70;;
73023;SDS011;61199;47.526;8.538;2022-11-06T00:20:18;40.30;;;9.10;;
73023;SDS011;61199;47.526;8.538;2022-11-06T00:22:44;24.30;;;10.20;;
73023;SDS011;61199;47.526;8.538;2022-11-06T00:25:11;19.97;;;10.27;;
73023;SDS011;61199;47.526;8.538;2022-11-06T00:27:38;28.30;;;8.87;;
73023;SDS011;61199;47.526;8.538;2022-11-06T00:30:06;31.77;;;9.60;;
73023;SDS011;61199;47.526;8.538;2022-11-06T00:32:34;34.17;;;10.40;;
73023;SDS011;61199;47.526;8.538;2022-11-06T00:35:01;22.70;;;9.03;;
73023;SDS011;61199;47.526;8.538;2022-11-06T00:37:27;26.23;;;9.67;;
73023;SDS011;61199;47.526;8.538;2022-11-06T00:39:53;16.47;;;8.70;;
73023;SDS011;61199;47.526;8.538;2022-11-06T00:42:20;15.70;;;9.80;;
73023;SDS011;61199;47.526;8.538;2022-11-06T00:44:46;15.07;;;8.80;;
73023;SDS011;61199;47.526;8.538;2022-11-06T00:47:13;18.67;;;9.97;;
73023;SDS011;61199;47.526;8.538;2022-11-06T00:49:39;16.57;;;9.30;;
73023;SDS011;61199;47.526;8.538;2022-11-06T00:52:05;21.90;;;10.87;;
73023;SDS011;61199;47.526;8.538;2022-11-06T00:54:32;21.80;;;9.37;;
73023;SDS011;61199;47.526;8.538;2022-11-06T00:56:59;24.83;;;9.70;;
73023;SDS011;61199;47.526;8.538;2022-11-06T00:59:25;19.30;;;9.27;;
73023;SDS011;61199;47.526;8.538;2022-11-06T01:01:51;16.97;;;9.43;;
73023;SDS011;61199;47.526;8.538;2022-11-06T01:04:19;19.27;;;10.50;;
73023;SDS011;61199;47.526;8.538;2022-11-06T01:06:48;17.70;;;9.90;;
73023;SDS011;61199;47.526;8.538;2022-11-06T01:09:19;14.30;;;9.23;;
73023;SDS011;61199;47.526;8.538;2022-11-06T01:11:49;16.77;;;9.40;;
73023;SDS011;61199;47.526;8.538;2022-11-06T01:14:38;14.03;;;9.03;;
73023;SDS011;61199;47.526;8.538;2022-11-06T01:17:05;15.30;;;8.90;;
73023;SDS011;61199;47.526;8.538;2022-11-06T01:19:32;14.73;;;9.67;;
73023;SDS011;61199;47.526;8.538;2022-11-06T01:21:58;11.97;;;8.67;;
73023;SDS011;61199;47.526;8.538;2022-11-06T01:24:25;13.97;;;8.60;;
73023;SDS011;61199;47.526;8.538;2022-11-06T01:26:53;14.57;;;7.47;;
73023;SDS011;61199;47.526;8.538;2022-11-06T01:29:40;12.80;;;7.70;;
73023;SDS011;61199;47.526;8.538;2022-11-06T01:32:07;15.93;;;9.03;;
73023;SDS011;61199;47.526;8.538;2022-11-06T01:34:33;14.73;;;7.73;;
73023;SDS011;61199;47.526;8.538;2022-11-06T01:37:00;12.50;;;8.40;;
73023;SDS011;61199;47.526;8.538;2022-11-06T01:39:26;10.70;;;7.03;;
73023;SDS011;61199;47.526;8.538;2022-11-06T01:41:53;12.77;;;8.17;;
73023;SDS011;61199;47.526;8.538;2022-11-06T01:46:59;17.93;;;8.60;;
73023;SDS011;61199;47.526;8.538;2022-11-06T01:49:31;15.93;;;8.57;;
73023;SDS011;61199;47.526;8.538;2022-11-06T01:52:07;25.63;;;10.90;;
73023;SDS011;61199;47.526;8.538;2022-11-06T01:54:36;30.30;;;10.67;;
73023;SDS011;61199;47.526;8.538;2022-11-06T01:57:04;22.30;;;12.83;;
73023;SDS011;61199;47.526;8.538;2022-11-06T01:59:33;16.57;;;9.70;;
73023;SDS011;61199;47.526;8.538;2022-11-06T02:02:02;18.90;;;10.50;;
73023;SDS011;61199;47.526;8.538;2022-11-06T02:04:37;25.33;;;11.20;;
73023;SDS011;61199;47.526;8.538;2022-11-06T02:07:06;20.70;;;9.60;;
73023;SDS011;61199;47.526;8.538;2022-11-06T02:09:33;17.83;;;9.37;;
73023;SDS011;61199;47.526;8.538;2022-11-06T02:12:15;15.93;;;10.30;;
73023;SDS011;61199;47.526;8.538;2022-11-06T02:14:55;21.00;;;9.53;;
73023;SDS011;61199;47.526;8.538;2022-11-06T02:20:40;23.80;;;10.00;;
73023;SDS011;61199;47.526;8.538;2022-11-06T02:29:19;26.00;;;10.40;;
73023;SDS011;61199;47.526;8.538;2022-11-06T02:31:48;19.83;;;11.67;;
73023;SDS011;61199;47.526;8.538;2022-11-06T02:34:19;20.50;;;11.87;;
73023;SDS011;61199;47.526;8.538;2022-11-06T02:36:59;23.13;;;11.53;;
73023;SDS011;61199;47.526;8.538;2022-11-06T02:39:29;23.27;;;12.53;;
73023;SDS011;61199;47.526;8.538;2022-11-06T02:41:59;21.93;;;11.10;;
73023;SDS011;61199;47.526;8.538;2022-11-06T02:44:28;28.37;;;11.57;;
73023;SDS011;61199;47.526;8.538;2022-11-06T02:46:59;19.90;;;10.77;;
73023;SDS011;61199;47.526;8.538;2022-11-06T02:52:16;25.23;;;11.63;;
73023;SDS011;61199;47.526;8.538;2022-11-06T02:54:50;30.17;;;12.30;;
73023;SDS011;61199;47.526;8.538;2022-11-06T02:57:22;21.43;;;11.33;;
73023;SDS011;61199;47.526;8.538;2022-11-06T02:59:59;30.60;;;13.37;;
73023;SDS011;61199;47.526;8.538;2022-11-06T03:02:35;38.37;;;12.23;;
73023;SDS011;61199;47.526;8.538;2022-11-06T03:05:20;27.20;;;13.07;;
73023;SDS011;61199;47.526;8.538;2022-11-06T03:07:52;22.60;;;12.00;;
73023;SDS011;61199;47.526;8.538;2022-11-06T03:10:24;22.60;;;11.57;;
73023;SDS011;61199;47.526;8.538;2022-11-06T03:12:58;29.23;;;12.83;;
73023;SDS011;61199;47.526;8.538;2022-11-06T03:15:51;23.20;;;12.20;;
73023;SDS011;61199;47.526;8.538;2022-11-06T03:18:33;28.67;;;13.20;;
73023;SDS011;61199;47.526;8.538;2022-11-06T03:21:16;19.30;;;10.87;;
73023;SDS011;61199;47.526;8.538;2022-11-06T03:23:51;44.87;;;11.50;;
73023;SDS011;61199;47.526;8.538;2022-11-06T03:26:23;23.10;;;12.67;;
73023;SDS011;61199;47.526;8.538;2022-11-06T03:28:59;20.43;;;11.20;;
73023;SDS011;61199;47.526;8.538;2022-11-06T03:31:35;29.40;;;11.30;;
73023;SDS011;61199;47.526;8.538;2022-11-06T03:34:08;22.87;;;11.53;;
73023;SDS011;61199;47.526;8.538;2022-11-06T03:36:40;23.20;;;12.70;;
73023;SDS011;61199;47.526;8.538;2022-11-06T03:39:44;21.83;;;10.23;;
73023;SDS011;61199;47.526;8.538;2022-11-06T03:42:05;21.83;;;10.40;;
73023;SDS011;61199;47.526;8.538;2022-11-06T03:44:38;16.73;;;9.70;;
73023;SDS011;61199;47.526;8.538;2022-11-06T03:47:10;17.03;;;9.33;;
73023;SDS011;61199;47.526;8.538;2022-11-06T03:49:45;19.60;;;11.13;;
73023;SDS011;61199;47.526;8.538;2022-11-06T03:52:32;17.70;;;10.20;;
73023;SDS011;61199;47.526;8.538;2022-11-06T03:55:04;19.23;;;9.80;;
73023;SDS011;61199;47.526;8.538;2022-11-06T03:57:38;20.23;;;11.23;;
73023;SDS011;61199;47.526;8.538;2022-11-06T04:00:10;18.40;;;10.40;;
73023;SDS011;61199;47.526;8.538;2022-11-06T04:02:38;26.67;;;11.17;;
73023;SDS011;61199;47.526;8.538;2022-11-06T04:05:10;17.27;;;10.10;;
73023;SDS011;61199;47.526;8.538;2022-11-06T04:07:45;21.90;;;10.57;;
73023;SDS011;61199;47.526;8.538;2022-11-06T04:10:36;18.60;;;10.33;;
73023;SDS011;61199;47.526;8.538;2022-11-06T04:13:24;17.93;;;9.40;;
73023;SDS011;61199;47.526;8.538;2022-11-06T04:16:12;16.53;;;9.43;;
73023;SDS011;61199;47.526;8.538;2022-11-06T04:18:39;17.70;;;8.90;;
73023;SDS011;61199;47.526;8.538;2022-11-06T04:30:12;17.37;;;9.63;;
73023;SDS011;61199;47.526;8.538;2022-11-06T04:33:26;16.10;;;8.80;;
73023;SDS011;61199;47.526;8.538;2022-11-06T04:35:38;19.83;;;9.53;;
73023;SDS011;61199;47.526;8.538;2022-11-06T04:38:22;15.27;;;8.90;;
73023;SDS011;61199;47.526;8.538;2022-11-06T04:44:12;14.80;;;8.33;;
73023;SDS011;61199;47.526;8.538;2022-11-06T04:46:44;19.70;;;9.10;;
73023;SDS011;61199;47.526;8.538;2022-11-06T04:49:17;13.83;;;8.10;;
73023;SDS011;61199;47.526;8.538;2022-11-06T04:51:45;19.77;;;9.47;;
73023;SDS011;61199;47.526;8.538;2022-11-06T04:54:12;15.13;;;9.00;;
73023;SDS011;61199;47.526;8.538;2022-11-06T04:56:40;15.97;;;8.90;;
73023;SDS011;61199;47.526;8.538;2022-11-06T04:59:13;17.53;;;8.40;;
73023;SDS011;61199;47.526;8.538;2022-11-06T05:01:41;14.80;;;9.10;;
73023;SDS011;61199;47.526;8.538;2022-11-06T05:04:08;15.90;;;9.70;;
73023;SDS011;61199;47.526;8.538;2022-11-06T05:06:34;16.30;;;9.30;;
73023;SDS011;61199;47.526;8.538;2022-11-06T05:09:00;16.23;;;9.40;;
73023;SDS011;61199;47.526;8.538;2022-11-06T05:11:27;16.57;;;9.27;;
73023;SDS011;61199;47.526;8.538;2022-11-06T05:13:53;18.60;;;9.53;;
73023;SDS011;61199;47.526;8.538;2022-11-06T05:16:19;15.80;;;9.13;;
73023;SDS011;61199;47.526;8.538;2022-11-06T05:18:46;19.07;;;9.80;;
73023;SDS011;61199;47.526;8.538;2022-11-06T05:21:13;17.37;;;9.87;;
73023;SDS011;61199;47.526;8.538;2022-11-06T05:23:58;18.70;;;9.73;;
73023;SDS011;61199;47.526;8.538;2022-11-06T05:26:25;17.20;;;10.00;;
73023;SDS011;61199;47.526;8.538;2022-11-06T05:28:51;16.30;;;9.70;;
73023;SDS011;61199;47.526;8.538;2022-11-06T05:31:18;19.50;;;11.03;;
73023;SDS011;61199;47.526;8.538;2022-11-06T05:33:44;18.67;;;10.40;;
73023;SDS011;61199;47.526;8.538;2022-11-06T05:36:10;18.50;;;11.00;;
73023;SDS011;61199;47.526;8.538;2022-11-06T05:38:37;23.10;;;12.23;;
73023;SDS011;61199;47.526;8.538;2022-11-06T05:41:03;27.33;;;11.77;;
73023;SDS011;61199;47.526;8.538;2022-11-06T05:43:30;21.43;;;11.50;;
73023;SDS011;61199;47.526;8.538;2022-11-06T05:45:57;23.17;;;12.90;;
73023;SDS011;61199;47.526;8.538;2022-11-06T05:48:26;24.33;;;12.53;;
73023;SDS011;61199;47.526;8.538;2022-11-06T05:50:58;22.77;;;12.00;;
73023;SDS011;61199;47.526;8.538;2022-11-06T05:53:29;21.70;;;11.90;;
73023;SDS011;61199;47.526;8.538;2022-11-06T05:55:56;24.03;;;11.83;;
73023;SDS011;61199;47.526;8.538;2022-11-06T05:58:22;22.03;;;11.03;;
73023;SDS011;61199;47.526;8.538;2022-11-06T06:00:49;24.80;;;12.50;;
73023;SDS011;61199;47.526;8.538;2022-11-06T06:03:15;22.30;;;11.03;;
73023;SDS011;61199;47.526;8.538;2022-11-06T06:05:42;23.50;;;12.27;;
73023;SDS011;61199;47.526;8.538;2022-11-06T06:08:09;24.43;;;13.53;;
73023;SDS011;61199;47.526;8.538;2022-11-06T06:10:39;22.60;;;12.37;;
73023;SDS011;61199;47.526;8.538;2022-11-06T06:13:06;22.43;;;12.80;;
73023;SDS011;61199;47.526;8.538;2022-11-06T06:15:33;22.57;;;12.20;;
73023;SDS011;61199;47.526;8.538;2022-11-06T06:17:59;24.43;;;12.20;;
73023;SDS011;61199;47.526;8.538;2022-11-06T06:20:26;23.23;;;12.50;;
73023;SDS011;61199;47.526;8.538;2022-11-06T06:22:53;24.03;;;12.87;;
73023;SDS011;61199;47.526;8.538;2022-11-06T06:25:20;23.87;;;13.23;;
73023;SDS011;61199;47.526;8.538;2022-11-06T06:27:48;30.60;;;12.77;;
73023;SDS011;61199;47.526;8.538;2022-11-06T06:30:15;25.10;;;12.23;;
73023;SDS011;61199;47.526;8.538;2022-11-06T06:32:42;19.73;;;11.70;;
73023;SDS011;61199;47.526;8.538;2022-11-06T06:35:08;22.60;;;11.80;;
73023;SDS011;61199;47.526;8.538;2022-11-06T06:37:36;24.27;;;12.83;;
73023;SDS011;61199;47.526;8.538;2022-11-06T06:40:03;23.03;;;13.10;;
73023;SDS011;61199;47.526;8.538;2022-11-06T06:42:30;24.97;;;12.77;;
73023;SDS011;61199;47.526;8.538;2022-11-06T06:44:57;23.03;;;12.83;;
73023;SDS011;61199;47.526;8.538;2022-11-06T06:47:23;25.80;;;14.37;;
73023;SDS011;61199;47.526;8.538;2022-11-06T06:49:50;28.20;;;13.50;;
73023;SDS011;61199;47.526;8.538;2022-11-06T06:52:16;23.53;;;13.03;;
73023;SDS011;61199;47.526;8.538;2022-11-06T06:54:43;21.97;;;12.43;;
73023;SDS011;61199;47.526;8.538;2022-11-06T06:57:09;23.00;;;12.40;;
73023;SDS011;61199;47.526;8.538;2022-11-06T06:59:35;22.53;;;12.70;;
73023;SDS011;61199;47.526;8.538;2022-11-06T07:02:02;22.87;;;11.90;;
73023;SDS011;61199;47.526;8.538;2022-11-06T07:04:28;18.30;;;11.63;;
73023;SDS011;61199;47.526;8.538;2022-11-06T07:06:55;24.03;;;13.47;;
73023;SDS011;61199;47.526;8.538;2022-11-06T07:09:21;21.40;;;12.70;;
73023;SDS011;61199;47.526;8.538;2022-11-06T07:11:49;27.47;;;14.67;;
73023;SDS011;61199;47.526;8.538;2022-11-06T07:14:16;24.40;;;13.40;;
73023;SDS011;61199;47.526;8.538;2022-11-06T07:16:42;25.83;;;13.23;;
73023;SDS011;61199;47.526;8.538;2022-11-06T07:19:09;21.97;;;12.67;;
73023;SDS011;61199;47.526;8.538;2022-11-06T07:21:35;21.13;;;12.20;;
73023;SDS011;61199;47.526;8.538;2022-11-06T07:24:01;24.30;;;13.87;;
73023;SDS011;61199;47.526;8.538;2022-11-06T07:26:28;21.33;;;12.10;;
73023;SDS011;61199;47.526;8.538;2022-11-06T07:28:55;22.40;;;11.30;;
73023;SDS011;61199;47.526;8.538;2022-11-06T07:31:21;21.60;;;11.73;;
73023;SDS011;61199;47.526;8.538;2022-11-06T07:33:47;23.83;;;13.63;;
73023;SDS011;61199;47.526;8.538;2022-11-06T07:36:14;21.60;;;12.27;;
73023;SDS011;61199;47.526;8.538;2022-11-06T07:38:41;20.37;;;11.90;;
73023;SDS011;61199;47.526;8.538;2022-11-06T07:41:11;25.00;;;13.17;;
73023;SDS011;61199;47.526;8.538;2022-11-06T07:43:39;22.37;;;12.63;;
73023;SDS011;61199;47.526;8.538;2022-11-06T07:46:08;21.23;;;12.70;;
73023;SDS011;61199;47.526;8.538;2022-11-06T07:48:36;25.00;;;13.70;;
73023;SDS011;61199;47.526;8.538;2022-11-06T07:51:05;22.67;;;13.10;;
73023;SDS011;61199;47.526;8.538;2022-11-06T07:53:33;19.30;;;11.90;;
73023;SDS011;61199;47.526;8.538;2022-11-06T07:56:00;26.10;;;13.10;;
73023;SDS011;61199;47.526;8.538;2022-11-06T07:58:27;21.37;;;12.70;;
73023;SDS011;61199;47.526;8.538;2022-11-06T08:00:54;22.23;;;13.57;;
73023;SDS011;61199;47.526;8.538;2022-11-06T08:03:23;22.00;;;12.50;;
73023;SDS011;61199;47.526;8.538;2022-11-06T08:05:50;22.10;;;12.37;;
73023;SDS011;61199;47.526;8.538;2022-11-06T08:08:16;25.30;;;12.30;;
73023;SDS011;61199;47.526;8.538;2022-11-06T08:10:43;23.77;;;13.03;;
73023;SDS011;61199;47.526;8.538;2022-11-06T08:13:09;22.30;;;13.10;;
73023;SDS011;61199;47.526;8.538;2022-11-06T08:15:37;23.17;;;12.63;;
73023;SDS011;61199;47.526;8.538;2022-11-06T08:18:05;22.60;;;12.53;;
73023;SDS011;61199;47.526;8.538;2022-11-06T08:20:33;22.83;;;12.07;;
73023;SDS011;61199;47.526;8.538;2022-11-06T08:23:01;19.10;;;11.93;;
73023;SDS011;61199;47.526;8.538;2022-11-06T08:25:30;24.70;;;13.27;;
73023;SDS011;61199;47.526;8.538;2022-11-06T08:27:57;18.70;;;11.30;;
73023;SDS011;61199;47.526;8.538;2022-11-06T08:30:26;19.63;;;11.43;;
73023;SDS011;61199;47.526;8.538;2022-11-06T08:32:54;21.90;;;12.53;;
73023;SDS011;61199;47.526;8.538;2022-11-06T08:35:24;23.70;;;13.60;;
73023;SDS011;61199;47.526;8.538;2022-11-06T08:37:51;23.50;;;12.33;;
73023;SDS011;61199;47.526;8.538;2022-11-06T08:40:17;20.17;;;12.60;;
73023;SDS011;61199;47.526;8.538;2022-11-06T08:42:45;23.63;;;13.07;;
73023;SDS011;61199;47.526;8.538;2022-11-06T08:45:12;19.20;;;11.80;;
73023;SDS011;61199;47.526;8.538;2022-11-06T08:47:38;19.03;;;11.00;;
73023;SDS011;61199;47.526;8.538;2022-11-06T08:50:04;18.23;;;11.00;;
73023;SDS011;61199;47.526;8.538;2022-11-06T08:52:31;20.73;;;11.93;;
73023;SDS011;61199;47.526;8.538;2022-11-06T08:54:59;18.03;;;11.30;;
73023;SDS011;61199;47.526;8.538;2022-11-06T08:57:26;19.27;;;11.47;;
73023;SDS011;61199;47.526;8.538;2022-11-06T08:59:53;19.90;;;11.40;;
73023;SDS011;61199;47.526;8.538;2022-11-06T09:02:19;22.43;;;10.47;;
73023;SDS011;61199;47.526;8.538;2022-11-06T09:04:46;18.87;;;11.13;;
73023;SDS011;61199;47.526;8.538;2022-11-06T09:07:12;21.00;;;11.87;;
73023;SDS011;61199;47.526;8.538;2022-11-06T09:09:39;19.10;;;11.97;;
73023;SDS011;61199;47.526;8.538;2022-11-06T09:12:05;21.93;;;12.30;;
73023;SDS011;61199;47.526;8.538;2022-11-06T09:14:32;22.37;;;11.87;;
73023;SDS011;61199;47.526;8.538;2022-11-06T09:16:59;22.40;;;11.77;;
73023;SDS011;61199;47.526;8.538;2022-11-06T09:19:26;20.80;;;12.00;;
73023;SDS011;61199;47.526;8.538;2022-11-06T09:21:52;20.70;;;11.70;;
73023;SDS011;61199;47.526;8.538;2022-11-06T09:24:20;22.10;;;12.07;;
73023;SDS011;61199;47.526;8.538;2022-11-06T09:27:06;20.77;;;12.33;;
73023;SDS011;61199;47.526;8.538;2022-11-06T09:29:33;19.87;;;12.10;;
73023;SDS011;61199;47.526;8.538;2022-11-06T09:31:59;19.60;;;11.30;;
73023;SDS011;61199;47.526;8.538;2022-11-06T09:34:26;26.87;;;11.40;;
73023;SDS011;61199;47.526;8.538;2022-11-06T09:36:53;20.10;;;11.13;;
73023;SDS011;61199;47.526;8.538;2022-11-06T09:39:19;19.77;;;11.63;;
73023;SDS011;61199;47.526;8.538;2022-11-06T09:41:48;21.20;;;12.23;;
73023;SDS011;61199;47.526;8.538;2022-11-06T09:44:26;20.93;;;11.20;;
73023;SDS011;61199;47.526;8.538;2022-11-06T09:46:56;21.93;;;12.27;;
73023;SDS011;61199;47.526;8.538;2022-11-06T09:52:25;18.93;;;11.03;;
73023;SDS011;61199;47.526;8.538;2022-11-06T09:55:20;23.70;;;10.53;;
73023;SDS011;61199;47.526;8.538;2022-11-06T10:00:26;17.57;;;10.53;;
73023;SDS011;61199;47.526;8.538;2022-11-06T10:05:26;17.70;;;11.20;;
73023;SDS011;61199;47.526;8.538;2022-11-06T10:08:11;24.13;;;12.00;;
73023;SDS011;61199;47.526;8.538;2022-11-06T10:10:49;17.40;;;10.50;;
73023;SDS011;61199;47.526;8.538;2022-11-06T10:19:38;18.53;;;10.30;;
73023;SDS011;61199;47.526;8.538;2022-11-06T10:22:13;16.77;;;10.73;;
73023;SDS011;61199;47.526;8.538;2022-11-06T10:24:46;16.17;;;10.50;;
73023;SDS011;61199;47.526;8.538;2022-11-06T10:27:15;15.70;;;9.47;;
73023;SDS011;61199;47.526;8.538;2022-11-06T10:38:55;18.70;;;11.27;;
73023;SDS011;61199;47.526;8.538;2022-11-06T10:41:25;19.63;;;11.70;;
73023;SDS011;61199;47.526;8.538;2022-11-06T10:46:34;17.17;;;11.30;;
73023;SDS011;61199;47.526;8.538;2022-11-06T10:49:16;22.73;;;11.60;;
73023;SDS011;61199;47.526;8.538;2022-11-06T11:00:03;20.13;;;12.00;;
73023;SDS011;61199;47.526;8.538;2022-11-06T11:02:31;23.40;;;11.43;;
73023;SDS011;61199;47.526;8.538;2022-11-06T11:05:01;16.10;;;9.17;;
73023;SDS011;61199;47.526;8.538;2022-11-06T11:07:36;17.90;;;9.90;;
73023;SDS011;61199;47.526;8.538;2022-11-06T11:12:48;20.30;;;12.20;;
73023;SDS011;61199;47.526;8.538;2022-11-06T11:15:17;19.17;;;11.50;;
73023;SDS011;61199;47.526;8.538;2022-11-06T11:20:38;15.07;;;9.50;;
73023;SDS011;61199;47.526;8.538;2022-11-06T11:23:17;14.93;;;9.57;;
73023;SDS011;61199;47.526;8.538;2022-11-06T11:25:52;17.00;;;10.70;;
73023;SDS011;61199;47.526;8.538;2022-11-06T11:28:22;19.10;;;10.47;;
73023;SDS011;61199;47.526;8.538;2022-11-06T11:30:50;20.40;;;11.07;;
73023;SDS011;61199;47.526;8.538;2022-11-06T11:33:38;15.50;;;9.20;;
73023;SDS011;61199;47.526;8.538;2022-11-06T11:36:07;25.57;;;12.90;;
73023;SDS011;61199;47.526;8.538;2022-11-06T11:38:35;19.03;;;10.60;;
73023;SDS011;61199;47.526;8.538;2022-11-06T11:41:14;17.77;;;9.87;;
73023;SDS011;61199;47.526;8.538;2022-11-06T11:46:44;14.93;;;9.60;;
73023;SDS011;61199;47.526;8.538;2022-11-06T11:49:39;14.53;;;9.20;;
73023;SDS011;61199;47.526;8.538;2022-11-06T11:52:05;14.63;;;9.33;;
73023;SDS011;61199;47.526;8.538;2022-11-06T11:54:38;16.20;;;10.40;;
73023;SDS011;61199;47.526;8.538;2022-11-06T11:57:06;18.20;;;11.50;;
73023;SDS011;61199;47.526;8.538;2022-11-06T12:02:15;14.13;;;9.53;;
73023;SDS011;61199;47.526;8.538;2022-11-06T12:05:29;19.40;;;12.07;;
73023;SDS011;61199;47.526;8.538;2022-11-06T12:07:56;16.83;;;11.20;;
73023;SDS011;61199;47.526;8.538;2022-11-06T12:10:26;18.57;;;11.53;;
73023;SDS011;61199;47.526;8.538;2022-11-06T12:12:53;18.17;;;11.93;;
73023;SDS011;61199;47.526;8.538;2022-11-06T12:15:23;15.07;;;11.13;;
73023;SDS011;61199;47.526;8.538;2022-11-06T12:17:54;15.53;;;10.97;;
73023;SDS011;61199;47.526;8.538;2022-11-06T12:20:38;20.50;;;12.37;;
73023;SDS011;61199;47.526;8.538;2022-11-06T12:23:15;16.53;;;11.20;;
73023;SDS011;61199;47.526;8.538;2022-11-06T12:25:57;14.00;;;9.60;;
73023;SDS011;61199;47.526;8.538;2022-11-06T12:28:31;17.30;;;10.53;;
73023;SDS011;61199;47.526;8.538;2022-11-06T12:31:05;18.93;;;11.20;;
73023;SDS011;61199;47.526;8.538;2022-11-06T12:33:42;15.63;;;10.43;;
73023;SDS011;61199;47.526;8.538;2022-11-06T12:36:31;14.87;;;10.03;;
73023;SDS011;61199;47.526;8.538;2022-11-06T12:39:10;13.97;;;9.03;;
73023;SDS011;61199;47.526;8.538;2022-11-06T12:41:44;16.30;;;9.90;;
73023;SDS011;61199;47.526;8.538;2022-11-06T12:44:14;14.23;;;8.83;;
73023;SDS011;61199;47.526;8.538;2022-11-06T12:47:45;12.47;;;8.97;;
73023;SDS011;61199;47.526;8.538;2022-11-06T12:53:08;13.53;;;8.60;;
73023;SDS011;61199;47.526;8.538;2022-11-06T12:55:46;14.27;;;9.20;;
73023;SDS011;61199;47.526;8.538;2022-11-06T13:01:15;15.20;;;10.03;;
73023;SDS011;61199;47.526;8.538;2022-11-06T13:03:58;13.50;;;9.10;;
73023;SDS011;61199;47.526;8.538;2022-11-06T13:15:55;15.80;;;9.07;;
73023;SDS011;61199;47.526;8.538;2022-11-06T13:18:34;14.50;;;9.37;;
73023;SDS011;61199;47.526;8.538;2022-11-06T13:21:06;16.30;;;9.80;;
73023;SDS011;61199;47.526;8.538;2022-11-06T13:23:36;12.60;;;8.67;;
73023;SDS011;61199;47.526;8.538;2022-11-06T13:28:56;15.47;;;9.77;;
73023;SDS011;61199;47.526;8.538;2022-11-06T13:31:32;15.70;;;9.27;;
73023;SDS011;61199;47.526;8.538;2022-11-06T13:34:04;11.77;;;8.03;;
73023;SDS011;61199;47.526;8.538;2022-11-06T13:36:34;13.40;;;9.00;;
73023;SDS011;61199;47.526;8.538;2022-11-06T13:39:25;13.03;;;8.80;;
73023;SDS011;61199;47.526;8.538;2022-11-06T13:42:00;13.00;;;8.47;;
73023;SDS011;61199;47.526;8.538;2022-11-06T13:44:28;17.13;;;8.90;;
73023;SDS011;61199;47.526;8.538;2022-11-06T13:47:11;13.80;;;7.87;;
73023;SDS011;61199;47.526;8.538;2022-11-06T13:52:20;13.30;;;8.53;;
73023;SDS011;61199;47.526;8.538;2022-11-06T14:00:50;12.30;;;7.83;;
73023;SDS011;61199;47.526;8.538;2022-11-06T14:03:40;11.80;;;8.10;;
73023;SDS011;61199;47.526;8.538;2022-11-06T14:08:51;15.00;;;7.47;;
73023;SDS011;61199;47.526;8.538;2022-11-06T14:11:24;12.07;;;7.30;;
73023;SDS011;61199;47.526;8.538;2022-11-06T14:14:06;10.67;;;6.63;;
73023;SDS011;61199;47.526;8.538;2022-11-06T14:16:39;11.17;;;7.33;;
73023;SDS011;61199;47.526;8.538;2022-11-06T14:19:12;11.43;;;7.60;;
73023;SDS011;61199;47.526;8.538;2022-11-06T14:21:54;9.40;;;6.77;;
73023;SDS011;61199;47.526;8.538;2022-11-06T14:24:57;11.43;;;7.20;;
73023;SDS011;61199;47.526;8.538;2022-11-06T14:34:57;9.73;;;7.00;;
73023;SDS011;61199;47.526;8.538;2022-11-06T14:40:59;9.97;;;6.80;;
73023;SDS011;61199;47.526;8.538;2022-11-06T14:48:48;10.13;;;6.73;;
73023;SDS011;61199;47.526;8.538;2022-11-06T14:51:21;7.80;;;5.80;;
73023;SDS011;61199;47.526;8.538;2022-11-06T14:53:52;9.80;;;6.70;;
73023;SDS011;61199;47.526;8.538;2022-11-06T14:56:30;9.67;;;6.43;;
73023;SDS011;61199;47.526;8.538;2022-11-06T14:59:01;10.93;;;7.03;;
73023;SDS011;61199;47.526;8.538;2022-11-06T15:01:34;11.40;;;6.70;;
73023;SDS011;61199;47.526;8.538;2022-11-06T15:04:13;10.37;;;6.53;;
73023;SDS011;61199;47.526;8.538;2022-11-06T15:06:44;11.83;;;6.60;;
73023;SDS011;61199;47.526;8.538;2022-11-06T15:09:14;9.40;;;6.40;;
73023;SDS011;61199;47.526;8.538;2022-11-06T15:12:06;12.20;;;7.50;;
73023;SDS011;61199;47.526;8.538;2022-11-06T15:17:09;12.47;;;8.37;;
73023;SDS011;61199;47.526;8.538;2022-11-06T15:19:41;18.67;;;8.20;;
73023;SDS011;61199;47.526;8.538;2022-11-06T15:24:48;15.93;;;8.93;;
73023;SDS011;61199;47.526;8.538;2022-11-06T15:27:21;20.53;;;11.40;;
73023;SDS011;61199;47.526;8.538;2022-11-06T15:29:53;14.63;;;8.67;;
73023;SDS011;61199;47.526;8.538;2022-11-06T15:32:29;14.43;;;8.40;;
73023;SDS011;61199;47.526;8.538;2022-11-06T15:35:07;16.37;;;9.20;;
73023;SDS011;61199;47.526;8.538;2022-11-06T15:37:44;13.80;;;8.37;;
73023;SDS011;61199;47.526;8.538;2022-11-06T15:40:29;15.77;;;9.07;;
73023;SDS011;61199;47.526;8.538;2022-11-06T15:43:00;18.73;;;9.90;;
73023;SDS011;61199;47.526;8.538;2022-11-06T15:45:32;17.80;;;10.50;;
73023;SDS011;61199;47.526;8.538;2022-11-06T15:50:27;13.50;;;9.10;;
73023;SDS011;61199;47.526;8.538;2022-11-06T15:58:25;12.13;;;8.63;;
73023;SDS011;61199;47.526;8.538;2022-11-06T16:01:00;11.37;;;6.87;;
73023;SDS011;61199;47.526;8.538;2022-11-06T16:03:29;12.60;;;7.93;;
73023;SDS011;61199;47.526;8.538;2022-11-06T16:06:01;12.20;;;8.30;;
73023;SDS011;61199;47.526;8.538;2022-11-06T16:08:29;16.67;;;9.60;;
73023;SDS011;61199;47.526;8.538;2022-11-06T16:10:57;18.60;;;8.57;;
73023;SDS011;61199;47.526;8.538;2022-11-06T16:13:25;14.07;;;9.00;;
73023;SDS011;61199;47.526;8.538;2022-11-06T16:16:00;14.20;;;8.07;;
73023;SDS011;61199;47.526;8.538;2022-11-06T16:18:29;15.77;;;9.03;;
73023;SDS011;61199;47.526;8.538;2022-11-06T16:21:10;11.70;;;7.87;;
73023;SDS011;61199;47.526;8.538;2022-11-06T16:26:20;15.27;;;9.23;;
73023;SDS011;61199;47.526;8.538;2022-11-06T16:28:49;18.53;;;11.23;;
73023;SDS011;61199;47.526;8.538;2022-11-06T16:31:20;12.53;;;8.33;;
73023;SDS011;61199;47.526;8.538;2022-11-06T16:34:17;15.00;;;8.47;;
73023;SDS011;61199;47.526;8.538;2022-11-06T16:40:03;16.10;;;8.50;;
73023;SDS011;61199;47.526;8.538;2022-11-06T16:42:32;11.87;;;8.30;;
73023;SDS011;61199;47.526;8.538;2022-11-06T16:45:18;16.00;;;9.57;;
73023;SDS011;61199;47.526;8.538;2022-11-06T16:50:44;13.73;;;9.10;;
73023;SDS011;61199;47.526;8.538;2022-11-06T16:53:17;13.53;;;8.50;;
73023;SDS011;61199;47.526;8.538;2022-11-06T16:55:51;14.13;;;8.40;;
73023;SDS011;61199;47.526;8.538;2022-11-06T16:58:22;12.73;;;8.43;;
73023;SDS011;61199;47.526;8.538;2022-11-06T17:00:59;16.67;;;10.47;;
73023;SDS011;61199;47.526;8.538;2022-11-06T17:03:28;15.43;;;9.57;;
73023;SDS011;61199;47.526;8.538;2022-11-06T17:06:04;17.40;;;9.50;;
73023;SDS011;61199;47.526;8.538;2022-11-06T17:08:34;12.83;;;8.50;;
73023;SDS011;61199;47.526;8.538;2022-11-06T17:13:40;16.40;;;10.00;;
73023;SDS011;61199;47.526;8.538;2022-11-06T17:16:13;21.43;;;10.33;;